sensor_id;sensor_type;location;lat;lon;timestamp;temperature;humidity
8591;DHT22;4333;48.322;14.340;2023-01-01T00:01:29;4.40;99.90
8591;DHT22;4333;48.322;14.340;2023-01-01T00:03:57;4.40;99.90
8591;DHT22;4333;48.322;14.340;2023-01-01T00:06:24;4.40;99.90
8591;DHT22;4333;48.322;14.340;2023-01-01T00:08:51;4.50;99.90
8591;DHT22;4333;48.322;14.340;2023-01-01T00:11:37;4.80;99.90
8591;DHT22;4333;48.322;14.340;2023-01-01T00:14:02;4.80;99.90
8591;DHT22;4333;48.322;14.340;2023-01-01T00:16:28;4.60;99.90
8591;DHT22;4333;48.322;14.340;2023-01-01T00:18:54;4.40;99.90
8591;DHT22;4333;48.322;14.340;2023-01-01T00:21:20;4.30;99.90
8591;DHT22;4333;48.322;14.340;2023-01-01T00:23:45;4.30;99.90
8591;DHT22;4333;48.322;14.340;2023-01-01T00:26:14;4.30;99.90
8591;DHT22;4333;48.322;14.340;2023-01-01T00:28:41;4.30;99.90
8591;DHT22;4333;48.322;14.340;2023-01-01T00:31:12;4.50;99.90
8591;DHT22;4333;48.322;14.340;2023-01-01T00:33:42;4.50;99.90
8591;DHT22;4333;48.322;14.340;2023-01-01T00:36:11;4.50;99.90
8591;DHT22;4333;48.322;14.340;2023-01-01T00:38:42;4.50;99.90
8591;DHT22;4333;48.322;14.340;2023-01-01T00:41:08;4.60;99.90
8591;DHT22;4333;48.322;14.340;2023-01-01T00:43:34;4.60;99.90
8591;DHT22;4333;48.322;14.340;2023-01-01T00:46:05;4.60;99.90
8591;DHT22;4333;48.322;14.340;2023-01-01T00:48:34;4.60;99.90
8591;DHT22;4333;48.322;14.340;2023-01-01T00:53:57;4.70;99.90
8591;DHT22;4333;48.322;14.340;2023-01-01T00:56:35;4.60;99.90
8591;DHT22;4333;48.322;14.340;2023-01-01T00:59:07;4.50;99.90
8591;DHT22;4333;48.322;14.340;2023-01-01T01:01:37;4.40;99.90
8591;DHT22;4333;48.322;14.340;2023-01-01T01:04:06;4.40;99.90
8591;DHT22;4333;48.322;14.340;2023-01-01T01:06:43;4.30;99.90
8591;DHT22;4333;48.322;14.340;2023-01-01T01:09:09;4.30;99.90
8591;DHT22;4333;48.322;14.340;2023-01-01T01:11:55;4.20;99.90
8591;DHT22;4333;48.322;14.340;2023-01-01T01:14:31;4.10;99.90
8591;DHT22;4333;48.322;14.340;2023-01-01T01:17:05;4.10;99.90
8591;DHT22;4333;48.322;14.340;2023-01-01T01:19:44;4.10;99.90
8591;DHT22;4333;48.322;14.340;2023-01-01T01:22:14;4.10;99.90
8591;DHT22;4333;48.322;14.340;2023-01-01T01:24:44;4.10;99.90
8591;DHT22;4333;48.322;14.340;2023-01-01T01:27:20;4.00;99.90
8591;DHT22;4333;48.322;14.340;2023-01-01T01:29:57;4.00;99.90
8591;DHT22;4333;48.322;14.340;2023-01-01T01:32:32;4.00;99.90
8591;DHT22;4333;48.322;14.340;2023-01-01T01:35:12;3.90;99.90
8591;DHT22;4333;48.322;14.340;2023-01-01T01:37:43;3.90;99.90
8591;DHT22;4333;48.322;14.340;2023-01-01T01:40:09;3.80;99.90
8591;DHT22;4333;48.322;14.340;2023-01-01T01:42:39;3.90;99.90
8591;DHT22;4333;48.322;14.340;2023-01-01T01:45:23;3.90;99.90
8591;DHT22;4333;48.322;14.340;2023-01-01T01:47:56;3.90;99.90
8591;DHT22;4333;48.322;14.340;2023-01-01T01:50:36;4.00;99.90
8591;DHT22;4333;48.322;14.340;2023-01-01T01:53:19;4.00;99.90
8591;DHT22;4333;48.322;14.340;2023-01-01T01:56:00;4.10;99.90
8591;DHT22;4333;48.322;14.340;2023-01-01T01:58:43;4.00;99.90
8591;DHT22;4333;48.322;14.340;2023-01-01T02:01:09;4.00;99.90
8591;DHT22;4333;48.322;14.340;2023-01-01T02:03:57;4.00;99.90
8591;DHT22;4333;48.322;14.340;2023-01-01T02:06:42;4.00;99.90
8591;DHT22;4333;48.322;14.340;2023-01-01T02:09:16;4.10;99.90
8591;DHT22;4333;48.322;14.340;2023-01-01T02:11:41;4.10;99.90
8591;DHT22;4333;48.322;14.340;2023-01-01T02:14:08;4.10;99.90
8591;DHT22;4333;48.322;14.340;2023-01-01T02:16:56;4.10;99.90
8591;DHT22;4333;48.322;14.340;2023-01-01T02:19:51;4.00;99.90
8591;DHT22;4333;48.322;14.340;2023-01-01T02:28:51;3.90;99.90
8591;DHT22;4333;48.322;14.340;2023-01-01T02:31:24;4.00;99.90
8591;DHT22;4333;48.322;14.340;2023-01-01T02:34:13;4.00;99.90
8591;DHT22;4333;48.322;14.340;2023-01-01T02:36:45;4.00;99.90
8591;DHT22;4333;48.322;14.340;2023-01-01T02:39:19;4.10;99.90
8591;DHT22;4333;48.322;14.340;2023-01-01T02:41:48;4.10;99.90
8591;DHT22;4333;48.322;14.340;2023-01-01T02:44:18;4.10;99.90
8591;DHT22;4333;48.322;14.340;2023-01-01T02:46:52;3.90;99.90
8591;DHT22;4333;48.322;14.340;2023-01-01T02:49:20;3.80;99.90
8591;DHT22;4333;48.322;14.340;2023-01-01T02:54:57;3.70;99.90
8591;DHT22;4333;48.322;14.340;2023-01-01T02:57:58;3.80;99.90
8591;DHT22;4333;48.322;14.340;2023-01-01T03:00:47;3.50;99.90
8591;DHT22;4333;48.322;14.340;2023-01-01T03:03:41;3.30;99.90
8591;DHT22;4333;48.322;14.340;2023-01-01T03:16:15;3.40;99.90
8591;DHT22;4333;48.322;14.340;2023-01-01T03:18:36;3.50;99.90
8591;DHT22;4333;48.322;14.340;2023-01-01T03:21:29;3.50;99.90
8591;DHT22;4333;48.322;14.340;2023-01-01T03:24:02;3.60;99.90
8591;DHT22;4333;48.322;14.340;2023-01-01T03:26:28;3.60;99.90
8591;DHT22;4333;48.322;14.340;2023-01-01T03:28:58;3.70;99.90
8591;DHT22;4333;48.322;14.340;2023-01-01T03:31:42;3.80;99.90
8591;DHT22;4333;48.322;14.340;2023-01-01T03:34:21;3.80;99.90
8591;DHT22;4333;48.322;14.340;2023-01-01T03:37:07;3.80;99.90
8591;DHT22;4333;48.322;14.340;2023-01-01T03:39:48;3.80;99.90
8591;DHT22;4333;48.322;14.340;2023-01-01T03:42:37;3.70;99.90
8591;DHT22;4333;48.322;14.340;2023-01-01T03:45:42;3.70;99.90
8591;DHT22;4333;48.322;14.340;2023-01-01T03:48:10;3.60;99.90
8591;DHT22;4333;48.322;14.340;2023-01-01T03:54:26;3.70;99.90
8591;DHT22;4333;48.322;14.340;2023-01-01T03:57:32;3.60;99.90
8591;DHT22;4333;48.322;14.340;2023-01-01T04:00:34;3.50;99.90
8591;DHT22;4333;48.322;14.340;2023-01-01T04:03:32;3.50;99.90
8591;DHT22;4333;48.322;14.340;2023-01-01T04:06:00;3.50;99.90
8591;DHT22;4333;48.322;14.340;2023-01-01T04:11:59;3.50;99.90
8591;DHT22;4333;48.322;14.340;2023-01-01T04:14:38;3.40;99.90
8591;DHT22;4333;48.322;14.340;2023-01-01T04:17:08;3.40;99.90
8591;DHT22;4333;48.322;14.340;2023-01-01T04:19:35;3.50;99.90
8591;DHT22;4333;48.322;14.340;2023-01-01T04:22:02;3.50;99.90
8591;DHT22;4333;48.322;14.340;2023-01-01T04:24:32;3.40;99.90
8591;DHT22;4333;48.322;14.340;2023-01-01T04:27:05;3.40;99.90
8591;DHT22;4333;48.322;14.340;2023-01-01T04:29:37;3.50;99.90
8591;DHT22;4333;48.322;14.340;2023-01-01T04:32:06;3.40;99.90
8591;DHT22;4333;48.322;14.340;2023-01-01T04:34:32;3.40;99.90
8591;DHT22;4333;48.322;14.340;2023-01-01T04:37:06;3.40;99.90
8591;DHT22;4333;48.322;14.340;2023-01-01T04:39:42;3.30;99.90
8591;DHT22;4333;48.322;14.340;2023-01-01T04:42:18;3.30;99.90
8591;DHT22;4333;48.322;14.340;2023-01-01T04:44:57;3.40;99.90
8591;DHT22;4333;48.322;14.340;2023-01-01T04:51:00;3.50;99.90
8591;DHT22;4333;48.322;14.340;2023-01-01T04:53:39;3.40;99.90
8591;DHT22;4333;48.322;14.340;2023-01-01T04:56:15;3.40;99.90
8591;DHT22;4333;48.322;14.340;2023-01-01T04:58:51;3.40;99.90
8591;DHT22;4333;48.322;14.340;2023-01-01T05:01:25;3.40;99.90
8591;DHT22;4333;48.322;14.340;2023-01-01T05:03:53;3.40;99.90
8591;DHT22;4333;48.322;14.340;2023-01-01T05:06:29;3.40;99.90
8591;DHT22;4333;48.322;14.340;2023-01-01T05:09:01;3.40;99.90
8591;DHT22;4333;48.322;14.340;2023-01-01T05:11:34;3.30;99.90
8591;DHT22;4333;48.322;14.340;2023-01-01T05:14:11;3.30;99.90
8591;DHT22;4333;48.322;14.340;2023-01-01T05:16:47;3.30;99.90
8591;DHT22;4333;48.322;14.340;2023-01-01T05:19:34;3.30;99.90
8591;DHT22;4333;48.322;14.340;2023-01-01T05:22:03;3.40;99.90
8591;DHT22;4333;48.322;14.340;2023-01-01T05:24:38;3.30;99.90
8591;DHT22;4333;48.322;14.340;2023-01-01T05:27:23;3.30;99.90
8591;DHT22;4333;48.322;14.340;2023-01-01T05:29:53;3.30;99.90
8591;DHT22;4333;48.322;14.340;2023-01-01T05:32:20;3.20;99.90
8591;DHT22;4333;48.322;14.340;2023-01-01T05:34:56;3.20;99.90
8591;DHT22;4333;48.322;14.340;2023-01-01T05:37:34;3.30;99.90
8591;DHT22;4333;48.322;14.340;2023-01-01T05:40:23;3.30;99.90
8591;DHT22;4333;48.322;14.340;2023-01-01T05:42:50;3.40;99.90
8591;DHT22;4333;48.322;14.340;2023-01-01T05:45:27;3.40;99.90
8591;DHT22;4333;48.322;14.340;2023-01-01T05:48:25;3.30;99.90
8591;DHT22;4333;48.322;14.340;2023-01-01T05:51:02;3.40;99.90
8591;DHT22;4333;48.322;14.340;2023-01-01T05:53:34;3.50;99.90
8591;DHT22;4333;48.322;14.340;2023-01-01T05:56:03;3.50;99.90
8591;DHT22;4333;48.322;14.340;2023-01-01T05:58:34;3.40;99.90
8591;DHT22;4333;48.322;14.340;2023-01-01T06:03:57;3.50;99.90
8591;DHT22;4333;48.322;14.340;2023-01-01T06:06:32;3.40;99.90
8591;DHT22;4333;48.322;14.340;2023-01-01T06:09:13;3.40;99.90
8591;DHT22;4333;48.322;14.340;2023-01-01T06:11:57;3.40;99.90
8591;DHT22;4333;48.322;14.340;2023-01-01T06:14:22;3.40;99.90
8591;DHT22;4333;48.322;14.340;2023-01-01T06:16:54;3.30;99.90
8591;DHT22;4333;48.322;14.340;2023-01-01T06:19:20;3.30;99.90
8591;DHT22;4333;48.322;14.340;2023-01-01T06:21:46;3.30;99.90
8591;DHT22;4333;48.322;14.340;2023-01-01T06:24:12;3.30;99.90
8591;DHT22;4333;48.322;14.340;2023-01-01T06:26:37;3.30;99.90
8591;DHT22;4333;48.322;14.340;2023-01-01T06:29:03;3.40;99.90
8591;DHT22;4333;48.322;14.340;2023-01-01T06:31:29;3.20;99.90
8591;DHT22;4333;48.322;14.340;2023-01-01T06:33:56;3.20;99.90
8591;DHT22;4333;48.322;14.340;2023-01-01T06:36:23;3.20;99.90
8591;DHT22;4333;48.322;14.340;2023-01-01T06:38:53;3.30;99.90
8591;DHT22;4333;48.322;14.340;2023-01-01T06:41:22;3.30;99.90
8591;DHT22;4333;48.322;14.340;2023-01-01T06:43:48;3.10;99.90
8591;DHT22;4333;48.322;14.340;2023-01-01T06:46:18;3.00;99.90
8591;DHT22;4333;48.322;14.340;2023-01-01T06:48:46;3.00;99.90
8591;DHT22;4333;48.322;14.340;2023-01-01T06:51:23;3.10;99.90
8591;DHT22;4333;48.322;14.340;2023-01-01T06:53:50;3.10;99.90
8591;DHT22;4333;48.322;14.340;2023-01-01T06:56:17;3.20;99.90
8591;DHT22;4333;48.322;14.340;2023-01-01T07:02:09;3.20;99.90
8591;DHT22;4333;48.322;14.340;2023-01-01T07:04:35;3.20;99.90
8591;DHT22;4333;48.322;14.340;2023-01-01T07:07:00;3.20;99.90
8591;DHT22;4333;48.322;14.340;2023-01-01T07:09:31;3.30;99.90
8591;DHT22;4333;48.322;14.340;2023-01-01T07:11:57;3.30;99.90
8591;DHT22;4333;48.322;14.340;2023-01-01T07:14:23;3.30;99.90
8591;DHT22;4333;48.322;14.340;2023-01-01T07:16:49;3.30;99.90
8591;DHT22;4333;48.322;14.340;2023-01-01T07:19:14;3.40;99.90
8591;DHT22;4333;48.322;14.340;2023-01-01T07:21:43;3.40;99.90
8591;DHT22;4333;48.322;14.340;2023-01-01T07:24:11;3.40;99.90
8591;DHT22;4333;48.322;14.340;2023-01-01T07:26:37;3.40;99.90
8591;DHT22;4333;48.322;14.340;2023-01-01T07:29:04;3.40;99.90
8591;DHT22;4333;48.322;14.340;2023-01-01T07:31:30;3.40;99.90
8591;DHT22;4333;48.322;14.340;2023-01-01T07:33:56;3.40;99.90
8591;DHT22;4333;48.322;14.340;2023-01-01T07:36:22;3.50;99.90
8591;DHT22;4333;48.322;14.340;2023-01-01T07:38:47;3.50;99.90
8591;DHT22;4333;48.322;14.340;2023-01-01T07:41:13;3.50;99.90
8591;DHT22;4333;48.322;14.340;2023-01-01T07:43:43;3.50;99.90
8591;DHT22;4333;48.322;14.340;2023-01-01T07:46:13;3.50;99.90
8591;DHT22;4333;48.322;14.340;2023-01-01T07:49:15;3.60;99.90
8591;DHT22;4333;48.322;14.340;2023-01-01T07:51:41;3.50;99.90
8591;DHT22;4333;48.322;14.340;2023-01-01T07:54:29;3.60;99.90
8591;DHT22;4333;48.322;14.340;2023-01-01T07:56:54;3.50;99.90
8591;DHT22;4333;48.322;14.340;2023-01-01T07:59:27;3.40;99.90
8591;DHT22;4333;48.322;14.340;2023-01-01T08:01:53;3.50;99.90
8591;DHT22;4333;48.322;14.340;2023-01-01T08:04:19;3.40;99.90
8591;DHT22;4333;48.322;14.340;2023-01-01T08:06:48;3.30;99.90
8591;DHT22;4333;48.322;14.340;2023-01-01T08:09:32;3.30;99.90
8591;DHT22;4333;48.322;14.340;2023-01-01T08:11:58;3.20;99.90
8591;DHT22;4333;48.322;14.340;2023-01-01T08:14:24;3.20;99.90
8591;DHT22;4333;48.322;14.340;2023-01-01T08:17:04;3.10;99.90
8591;DHT22;4333;48.322;14.340;2023-01-01T08:19:45;3.20;99.90
8591;DHT22;4333;48.322;14.340;2023-01-01T08:22:14;3.20;99.90
8591;DHT22;4333;48.322;14.340;2023-01-01T08:24:41;3.30;99.90
8591;DHT22;4333;48.322;14.340;2023-01-01T08:27:15;3.20;99.90
8591;DHT22;4333;48.322;14.340;2023-01-01T08:29:42;3.00;99.90
8591;DHT22;4333;48.322;14.340;2023-01-01T08:32:08;3.00;99.90
8591;DHT22;4333;48.322;14.340;2023-01-01T08:34:34;3.00;99.90
8591;DHT22;4333;48.322;14.340;2023-01-01T08:37:00;3.00;99.90
8591;DHT22;4333;48.322;14.340;2023-01-01T08:39:25;3.10;99.90
8591;DHT22;4333;48.322;14.340;2023-01-01T08:41:51;3.10;99.90
8591;DHT22;4333;48.322;14.340;2023-01-01T08:44:18;3.20;99.90
8591;DHT22;4333;48.322;14.340;2023-01-01T08:46:43;3.20;99.90
8591;DHT22;4333;48.322;14.340;2023-01-01T08:49:09;3.10;99.90
8591;DHT22;4333;48.322;14.340;2023-01-01T08:51:35;3.20;99.90
8591;DHT22;4333;48.322;14.340;2023-01-01T08:54:01;3.40;99.90
8591;DHT22;4333;48.322;14.340;2023-01-01T08:56:26;3.50;99.90
8591;DHT22;4333;48.322;14.340;2023-01-01T08:58:52;3.50;99.90
8591;DHT22;4333;48.322;14.340;2023-01-01T09:01:20;3.50;99.90
8591;DHT22;4333;48.322;14.340;2023-01-01T09:03:47;3.50;99.90
8591;DHT22;4333;48.322;14.340;2023-01-01T09:06:13;3.50;99.90
8591;DHT22;4333;48.322;14.340;2023-01-01T09:08:39;3.40;99.90
8591;DHT22;4333;48.322;14.340;2023-01-01T09:11:05;3.40;99.90
8591;DHT22;4333;48.322;14.340;2023-01-01T09:13:31;3.50;99.90
8591;DHT22;4333;48.322;14.340;2023-01-01T09:16:01;3.50;99.90
8591;DHT22;4333;48.322;14.340;2023-01-01T09:18:27;3.50;99.90
8591;DHT22;4333;48.322;14.340;2023-01-01T09:20:52;3.50;99.90
8591;DHT22;4333;48.322;14.340;2023-01-01T09:23:18;3.60;99.90
8591;DHT22;4333;48.322;14.340;2023-01-01T09:25:44;3.70;99.90
8591;DHT22;4333;48.322;14.340;2023-01-01T09:28:11;3.80;99.90
8591;DHT22;4333;48.322;14.340;2023-01-01T09:30:38;3.80;99.90
8591;DHT22;4333;48.322;14.340;2023-01-01T09:33:04;3.90;99.90
8591;DHT22;4333;48.322;14.340;2023-01-01T09:35:30;4.00;99.90
8591;DHT22;4333;48.322;14.340;2023-01-01T09:37:56;4.10;99.90
8591;DHT22;4333;48.322;14.340;2023-01-01T09:43:17;4.10;99.90
8591;DHT22;4333;48.322;14.340;2023-01-01T09:46:03;4.10;99.90
8591;DHT22;4333;48.322;14.340;2023-01-01T09:48:32;4.10;99.90
8591;DHT22;4333;48.322;14.340;2023-01-01T09:51:04;4.20;99.90
8591;DHT22;4333;48.322;14.340;2023-01-01T09:53:38;4.40;99.90
8591;DHT22;4333;48.322;14.340;2023-01-01T09:56:12;4.60;99.90
8591;DHT22;4333;48.322;14.340;2023-01-01T09:58:39;4.90;99.90
8591;DHT22;4333;48.322;14.340;2023-01-01T10:01:19;4.90;99.90
8591;DHT22;4333;48.322;14.340;2023-01-01T10:04:01;4.70;99.90
8591;DHT22;4333;48.322;14.340;2023-01-01T10:06:33;4.60;99.90
8591;DHT22;4333;48.322;14.340;2023-01-01T10:12:02;5.00;99.90
8591;DHT22;4333;48.322;14.340;2023-01-01T10:14:36;5.30;99.90
8591;DHT22;4333;48.322;14.340;2023-01-01T10:17:26;5.20;99.90
8591;DHT22;4333;48.322;14.340;2023-01-01T10:19:59;5.20;99.90
8591;DHT22;4333;48.322;14.340;2023-01-01T10:23:02;5.30;99.90
8591;DHT22;4333;48.322;14.340;2023-01-01T10:25:29;5.40;99.90
8591;DHT22;4333;48.322;14.340;2023-01-01T10:28:03;5.50;99.90
8591;DHT22;4333;48.322;14.340;2023-01-01T10:30:31;5.60;99.90
8591;DHT22;4333;48.322;14.340;2023-01-01T10:32:57;5.80;99.90
8591;DHT22;4333;48.322;14.340;2023-01-01T10:35:31;5.90;99.90
8591;DHT22;4333;48.322;14.340;2023-01-01T10:37:59;5.90;99.90
8591;DHT22;4333;48.322;14.340;2023-01-01T10:40:26;5.90;99.90
8591;DHT22;4333;48.322;14.340;2023-01-01T10:42:57;5.80;99.90
8591;DHT22;4333;48.322;14.340;2023-01-01T10:45:36;5.70;99.90
8591;DHT22;4333;48.322;14.340;2023-01-01T10:53:31;5.70;99.90
8591;DHT22;4333;48.322;14.340;2023-01-01T11:01:00;6.20;99.90
8591;DHT22;4333;48.322;14.340;2023-01-01T11:03:26;6.20;99.90
8591;DHT22;4333;48.322;14.340;2023-01-01T11:06:04;6.20;99.90
8591;DHT22;4333;48.322;14.340;2023-01-01T11:08:33;6.20;99.90
8591;DHT22;4333;48.322;14.340;2023-01-01T11:11:01;6.20;99.90
8591;DHT22;4333;48.322;14.340;2023-01-01T11:13:29;6.30;99.90
8591;DHT22;4333;48.322;14.340;2023-01-01T11:15:55;6.40;99.90
8591;DHT22;4333;48.322;14.340;2023-01-01T11:18:26;6.50;99.90
8591;DHT22;4333;48.322;14.340;2023-01-01T11:20:57;6.30;99.90
8591;DHT22;4333;48.322;14.340;2023-01-01T11:23:35;6.30;99.90
8591;DHT22;4333;48.322;14.340;2023-01-01T11:26:18;6.20;99.90
8591;DHT22;4333;48.322;14.340;2023-01-01T11:31:33;6.60;99.90
8591;DHT22;4333;48.322;14.340;2023-01-01T11:34:02;6.50;99.90
8591;DHT22;4333;48.322;14.340;2023-01-01T11:36:33;6.60;99.90
8591;DHT22;4333;48.322;14.340;2023-01-01T11:39:23;6.70;99.90
8591;DHT22;4333;48.322;14.340;2023-01-01T11:41:57;6.70;99.90
8591;DHT22;4333;48.322;14.340;2023-01-01T11:44:33;6.80;99.90
8591;DHT22;4333;48.322;14.340;2023-01-01T11:47:00;6.80;99.90
8591;DHT22;4333;48.322;14.340;2023-01-01T11:49:29;6.80;99.90
8591;DHT22;4333;48.322;14.340;2023-01-01T11:51:56;6.90;99.90
8591;DHT22;4333;48.322;14.340;2023-01-01T11:57:09;7.40;99.90
8591;DHT22;4333;48.322;14.340;2023-01-01T11:59:48;7.70;99.90
8591;DHT22;4333;48.322;14.340;2023-01-01T12:02:23;8.00;99.90
8591;DHT22;4333;48.322;14.340;2023-01-01T12:05:05;8.30;99.90
8591;DHT22;4333;48.322;14.340;2023-01-01T12:07:35;8.60;99.90
8591;DHT22;4333;48.322;14.340;2023-01-01T12:13:22;9.10;99.90
8591;DHT22;4333;48.322;14.340;2023-01-01T12:16:10;9.30;99.90
8591;DHT22;4333;48.322;14.340;2023-01-01T12:19:19;9.50;99.90
8591;DHT22;4333;48.322;14.340;2023-01-01T12:21:38;9.60;99.90
8591;DHT22;4333;48.322;14.340;2023-01-01T12:24:10;9.70;99.90
8591;DHT22;4333;48.322;14.340;2023-01-01T12:26:58;9.90;99.90
8591;DHT22;4333;48.322;14.340;2023-01-01T12:37:58;10.00;99.90
8591;DHT22;4333;48.322;14.340;2023-01-01T12:40:59;10.10;99.90
8591;DHT22;4333;48.322;14.340;2023-01-01T12:46:26;10.70;99.90
8591;DHT22;4333;48.322;14.340;2023-01-01T12:49:06;10.90;99.90
8591;DHT22;4333;48.322;14.340;2023-01-01T12:57:45;10.60;99.90
8591;DHT22;4333;48.322;14.340;2023-01-01T13:00:20;10.90;99.90
8591;DHT22;4333;48.322;14.340;2023-01-01T13:02:53;11.00;99.90
8591;DHT22;4333;48.322;14.340;2023-01-01T13:05:35;11.20;99.90
8591;DHT22;4333;48.322;14.340;2023-01-01T13:08:03;11.40;99.90
8591;DHT22;4333;48.322;14.340;2023-01-01T13:10:36;11.30;99.90
8591;DHT22;4333;48.322;14.340;2023-01-01T13:13:03;11.50;99.90
8591;DHT22;4333;48.322;14.340;2023-01-01T13:20:57;11.80;99.90
8591;DHT22;4333;48.322;14.340;2023-01-01T13:40:21;12.10;99.90
8591;DHT22;4333;48.322;14.340;2023-01-01T13:55:58;12.20;99.90
8591;DHT22;4333;48.322;14.340;2023-01-01T13:58:34;12.20;99.90
8591;DHT22;4333;48.322;14.340;2023-01-01T14:03:50;12.30;99.90
8591;DHT22;4333;48.322;14.340;2023-01-01T14:06:24;12.10;99.90
8591;DHT22;4333;48.322;14.340;2023-01-01T14:09:11;12.20;99.90
8591;DHT22;4333;48.322;14.340;2023-01-01T14:11:37;12.40;99.90
8591;DHT22;4333;48.322;14.340;2023-01-01T14:14:17;12.60;99.90
8591;DHT22;4333;48.322;14.340;2023-01-01T14:16:51;12.40;99.90
8591;DHT22;4333;48.322;14.340;2023-01-01T14:19:17;12.30;99.90
8591;DHT22;4333;48.322;14.340;2023-01-01T14:21:44;12.20;99.90
8591;DHT22;4333;48.322;14.340;2023-01-01T14:24:14;12.00;99.90
8591;DHT22;4333;48.322;14.340;2023-01-01T14:26:40;11.90;99.90
8591;DHT22;4333;48.322;14.340;2023-01-01T14:29:08;11.70;99.90
8591;DHT22;4333;48.322;14.340;2023-01-01T14:34:36;11.40;99.90
8591;DHT22;4333;48.322;14.340;2023-01-01T14:37:04;11.40;99.90
8591;DHT22;4333;48.322;14.340;2023-01-01T14:39:36;11.30;99.90
8591;DHT22;4333;48.322;14.340;2023-01-01T14:42:08;11.20;99.90
8591;DHT22;4333;48.322;14.340;2023-01-01T14:44:38;11.40;99.90
8591;DHT22;4333;48.322;14.340;2023-01-01T14:47:33;11.40;99.90
8591;DHT22;4333;48.322;14.340;2023-01-01T14:50:28;11.30;99.90
8591;DHT22;4333;48.322;14.340;2023-01-01T14:53:05;11.40;99.90
8591;DHT22;4333;48.322;14.340;2023-01-01T14:55:39;11.40;99.90
8591;DHT22;4333;48.322;14.340;2023-01-01T14:58:08;11.20;99.90
8591;DHT22;4333;48.322;14.340;2023-01-01T15:00:36;11.10;99.90
8591;DHT22;4333;48.322;14.340;2023-01-01T15:03:05;11.00;99.90
8591;DHT22;4333;48.322;14.340;2023-01-01T15:05:34;10.90;99.90
8591;DHT22;4333;48.322;14.340;2023-01-01T15:08:03;10.80;99.90
8591;DHT22;4333;48.322;14.340;2023-01-01T15:10:31;10.50;99.90
8591;DHT22;4333;48.322;14.340;2023-01-01T15:12:58;10.00;99.90
8591;DHT22;4333;48.322;14.340;2023-01-01T15:18:01;9.70;99.90
8591;DHT22;4333;48.322;14.340;2023-01-01T15:20:28;9.40;99.90
8591;DHT22;4333;48.322;14.340;2023-01-01T15:22:55;9.10;99.90
8591;DHT22;4333;48.322;14.340;2023-01-01T15:25:20;9.00;99.90
8591;DHT22;4333;48.322;14.340;2023-01-01T15:27:48;8.90;99.90
8591;DHT22;4333;48.322;14.340;2023-01-01T15:30:34;8.90;99.90
8591;DHT22;4333;48.322;14.340;2023-01-01T15:33:12;8.90;99.90
8591;DHT22;4333;48.322;14.340;2023-01-01T15:35:39;8.90;99.90
8591;DHT22;4333;48.322;14.340;2023-01-01T15:38:16;8.80;99.90
8591;DHT22;4333;48.322;14.340;2023-01-01T15:40:43;8.70;99.90
8591;DHT22;4333;48.322;14.340;2023-01-01T15:43:23;8.70;99.90
8591;DHT22;4333;48.322;14.340;2023-01-01T15:48:35;8.60;99.90
8591;DHT22;4333;48.322;14.340;2023-01-01T15:53:48;8.30;99.90
8591;DHT22;4333;48.322;14.340;2023-01-01T15:56:15;8.20;99.90
8591;DHT22;4333;48.322;14.340;2023-01-01T16:01:13;8.10;99.90
8591;DHT22;4333;48.322;14.340;2023-01-01T16:03:44;8.10;99.90
8591;DHT22;4333;48.322;14.340;2023-01-01T16:06:15;8.00;99.90
8591;DHT22;4333;48.322;14.340;2023-01-01T16:08:42;8.00;99.90
8591;DHT22;4333;48.322;14.340;2023-01-01T16:11:08;8.00;99.90
8591;DHT22;4333;48.322;14.340;2023-01-01T16:13:33;7.80;99.90
8591;DHT22;4333;48.322;14.340;2023-01-01T16:16:01;7.70;99.90
8591;DHT22;4333;48.322;14.340;2023-01-01T16:18:30;7.60;99.90
8591;DHT22;4333;48.322;14.340;2023-01-01T16:20:58;7.60;99.90
8591;DHT22;4333;48.322;14.340;2023-01-01T16:23:24;7.50;99.90
8591;DHT22;4333;48.322;14.340;2023-01-01T16:25:49;7.30;99.90
8591;DHT22;4333;48.322;14.340;2023-01-01T16:28:15;7.30;99.90
8591;DHT22;4333;48.322;14.340;2023-01-01T16:30:44;7.20;99.90
8591;DHT22;4333;48.322;14.340;2023-01-01T16:33:15;7.10;99.90
8591;DHT22;4333;48.322;14.340;2023-01-01T16:35:41;7.10;99.90
8591;DHT22;4333;48.322;14.340;2023-01-01T16:38:07;7.00;99.90
8591;DHT22;4333;48.322;14.340;2023-01-01T16:40:33;7.00;99.90
8591;DHT22;4333;48.322;14.340;2023-01-01T16:42:59;7.00;99.90
8591;DHT22;4333;48.322;14.340;2023-01-01T16:45:25;7.00;99.90
8591;DHT22;4333;48.322;14.340;2023-01-01T16:47:50;7.00;99.90
8591;DHT22;4333;48.322;14.340;2023-01-01T16:50:17;7.00;99.90
8591;DHT22;4333;48.322;14.340;2023-01-01T16:52:43;6.90;99.90
8591;DHT22;4333;48.322;14.340;2023-01-01T16:55:09;6.90;99.90
8591;DHT22;4333;48.322;14.340;2023-01-01T16:57:34;7.00;99.90
8591;DHT22;4333;48.322;14.340;2023-01-01T17:00:01;7.00;99.90
8591;DHT22;4333;48.322;14.340;2023-01-01T17:02:27;6.90;99.90
8591;DHT22;4333;48.322;14.340;2023-01-01T17:04:54;6.90;99.90
8591;DHT22;4333;48.322;14.340;2023-01-01T17:07:21;6.90;99.90
8591;DHT22;4333;48.322;14.340;2023-01-01T17:09:47;6.90;99.90
8591;DHT22;4333;48.322;14.340;2023-01-01T17:12:12;6.80;99.90
8591;DHT22;4333;48.322;14.340;2023-01-01T17:14:39;6.70;99.90
8591;DHT22;4333;48.322;14.340;2023-01-01T17:17:05;6.70;99.90
8591;DHT22;4333;48.322;14.340;2023-01-01T17:19:31;6.70;99.90
8591;DHT22;4333;48.322;14.340;2023-01-01T17:21:56;6.70;99.90
8591;DHT22;4333;48.322;14.340;2023-01-01T17:24:22;6.60;99.90
8591;DHT22;4333;48.322;14.340;2023-01-01T17:26:53;6.40;99.90
8591;DHT22;4333;48.322;14.340;2023-01-01T17:29:23;6.30;99.90
8591;DHT22;4333;48.322;14.340;2023-01-01T17:31:49;6.20;99.90
8591;DHT22;4333;48.322;14.340;2023-01-01T17:34:15;6.00;99.90
8591;DHT22;4333;48.322;14.340;2023-01-01T17:36:42;6.00;99.90
8591;DHT22;4333;48.322;14.340;2023-01-01T17:39:12;6.00;99.90
8591;DHT22;4333;48.322;14.340;2023-01-01T17:41:39;5.90;99.90
8591;DHT22;4333;48.322;14.340;2023-01-01T17:44:05;5.80;99.90
8591;DHT22;4333;48.322;14.340;2023-01-01T17:46:32;5.80;99.90
8591;DHT22;4333;48.322;14.340;2023-01-01T17:48:59;5.90;99.90
8591;DHT22;4333;48.322;14.340;2023-01-01T17:51:25;5.80;99.90
8591;DHT22;4333;48.322;14.340;2023-01-01T17:53:52;5.80;99.90
8591;DHT22;4333;48.322;14.340;2023-01-01T17:56:19;5.80;99.90
8591;DHT22;4333;48.322;14.340;2023-01-01T17:58:48;5.80;99.90
8591;DHT22;4333;48.322;14.340;2023-01-01T18:03:50;5.80;99.90
8591;DHT22;4333;48.322;14.340;2023-01-01T18:06:17;5.80;99.90
8591;DHT22;4333;48.322;14.340;2023-01-01T18:08:43;5.80;99.90
8591;DHT22;4333;48.322;14.340;2023-01-01T18:11:09;5.80;99.90
8591;DHT22;4333;48.322;14.340;2023-01-01T18:13:35;5.70;99.90
8591;DHT22;4333;48.322;14.340;2023-01-01T18:16:02;5.70;99.90
8591;DHT22;4333;48.322;14.340;2023-01-01T18:18:28;5.70;99.90
8591;DHT22;4333;48.322;14.340;2023-01-01T18:21:12;5.70;99.90
8591;DHT22;4333;48.322;14.340;2023-01-01T18:23:50;5.50;99.90
8591;DHT22;4333;48.322;14.340;2023-01-01T18:26:16;5.40;99.90
8591;DHT22;4333;48.322;14.340;2023-01-01T18:28:42;5.30;99.90
8591;DHT22;4333;48.322;14.340;2023-01-01T18:31:13;5.30;99.90
8591;DHT22;4333;48.322;14.340;2023-01-01T18:33:39;5.20;99.90
8591;DHT22;4333;48.322;14.340;2023-01-01T18:36:10;5.30;99.90
8591;DHT22;4333;48.322;14.340;2023-01-01T18:38:37;5.40;99.90
8591;DHT22;4333;48.322;14.340;2023-01-01T18:43:28;5.30;99.90
8591;DHT22;4333;48.322;14.340;2023-01-01T18:45:55;5.20;99.90
8591;DHT22;4333;48.322;14.340;2023-01-01T18:48:22;5.10;99.90